Amis Wisdom 3 — 3FPE4 — position and weather

sailwx.info

Track history (hours):
 
Tides and Currents Weather Stations Pressure Air Temp Water Temp Dewpoint Dewpoint Depression Visibility Wind Speed Wind Dir Waves Ship Positions

Amis Wisdom 3

Last reported at 2017-Nov-10 18:57 UTC. Time now 2017-Nov-24 16:55 UTC.
Position N 01°16' E 104°11'.
Warning: this ship's position is 13 days out of date.

Length 199 m; draft 13 m.

Type: Cargo ship. MMSI: 351638000.

Date/timePositionNaut miles runAvg speedWind from/ knotsBaromVisibWave heightAir tempDewpointWater temp
2017-Nov-10 18:57N 01°16' E 104°11'710.6
2017-Nov-10 18:18N 01°15' E 104°04'3 9.5
2017-Nov-10 17:58N 01°15' E 104°01'3 6.6
2017-Nov-10 17:28N 01°16' E 103°58'1 2.3
2017-Nov-10 17:00N 01°17' E 103°58'0 0.0
2017-Nov-10 16:27N 01°17' E 103°58'0 0.0
2017-Nov-10 15:39N 01°17' E 103°58'0 0.3
2017-Nov-10 15:27N 01°17' E 103°58'0 0.0
2017-Nov-10 14:45N 01°17' E 103°58'0 0.0
2017-Nov-10 14:30N 01°17' E 103°58'0 0.0
2017-Nov-10 11:30N 01°17' E 103°58'0 0.0
2017-Nov-10 10:24N 01°17' E 103°58'0 0.1
2017-Nov-10 09:48N 01°17' E 103°58'0 0.2
2017-Nov-10 09:30N 01°17' E 103°58'0 0.1
2017-Nov-10 09:00N 01°17' E 103°58'0 0.1
2017-Nov-10 08:03N 01°17' E 103°58'0 0.0
2017-Nov-10 07:54N 01°17' E 103°58'0 0.0
2017-Nov-10 07:24N 01°17' E 103°58'0 0.1
2017-Nov-10 06:54N 01°17' E 103°58'0 0.2
2017-Nov-10 06:30N 01°17' E 103°58'0 0.1
2017-Nov-10 06:00N 01°17' E 103°58'0 0.1
2017-Nov-10 05:15N 01°17' E 103°58'0 0.1
2017-Nov-10 04:54N 01°17' E 103°58'0 0.1
2017-Nov-10 04:21N 01°17' E 103°58'0 1.4
2017-Nov-10 04:00N 01°17' E 103°58'2 4.4
2017-Nov-10 03:30N 01°15' E 103°57'3 6.3
2017-Nov-10 03:00N 01°13' E 103°54'3 6.7
2017-Nov-10 02:30N 01°11' E 103°51'3 6.0
2017-Nov-10 02:00N 01°10' E 103°48'3 5.4
2017-Nov-10 01:30N 01°08' E 103°46'3 5.4
2017-Nov-10 01:00N 01°06' E 103°44'3 5.9
2017-Nov-10 00:30N 01°04' E 103°42'3 5.5
2017-Nov-09 23:59N 01°03' E 103°40'2 5.1
2017-Nov-09 23:30N 01°03' E 103°37'5 9.5
2017-Nov-09 23:00N 01°06' E 103°33'611.5
2017-Nov-09 22:30N 01°09' E 103°28'611.6
2017-Nov-09 21:59N 01°12' E 103°23'  
Track history (hours):
 
Tides and Currents Weather Stations Pressure Air Temp Water Temp Dewpoint Dewpoint Depression Visibility Wind Speed Wind Dir Waves Ship Positions

Amis Wisdom 3

Last reported at 2017-Nov-10 18:57 UTC. Time now 2017-Nov-24 16:55 UTC.
Position N 01°16' E 104°11'.
Warning: this ship's position is 13 days out of date.

Length 199 m; draft 13 m.

Type: Cargo ship. MMSI: 351638000.

Date/timePositionNaut miles runAvg speedWind from/ knotsBaromVisibWave heightAir tempDewpointWater temp
2017-Nov-10 18:57N 01°16' E 104°11'710.6
2017-Nov-10 18:18N 01°15' E 104°04'3 9.5
2017-Nov-10 17:58N 01°15' E 104°01'3 6.6
2017-Nov-10 17:28N 01°16' E 103°58'1 2.3
2017-Nov-10 17:00N 01°17' E 103°58'0 0.0
2017-Nov-10 16:27N 01°17' E 103°58'0 0.0
2017-Nov-10 15:39N 01°17' E 103°58'0 0.3
2017-Nov-10 15:27N 01°17' E 103°58'0 0.0
2017-Nov-10 14:45N 01°17' E 103°58'0 0.0
2017-Nov-10 14:30N 01°17' E 103°58'0 0.0
2017-Nov-10 11:30N 01°17' E 103°58'0 0.0
2017-Nov-10 10:24N 01°17' E 103°58'0 0.1
2017-Nov-10 09:48N 01°17' E 103°58'0 0.2
2017-Nov-10 09:30N 01°17' E 103°58'0 0.1
2017-Nov-10 09:00N 01°17' E 103°58'0 0.1
2017-Nov-10 08:03N 01°17' E 103°58'0 0.0
2017-Nov-10 07:54N 01°17' E 103°58'0 0.0
2017-Nov-10 07:24N 01°17' E 103°58'0 0.1
2017-Nov-10 06:54N 01°17' E 103°58'0 0.2
2017-Nov-10 06:30N 01°17' E 103°58'0 0.1
2017-Nov-10 06:00N 01°17' E 103°58'0 0.1
2017-Nov-10 05:15N 01°17' E 103°58'0 0.1
2017-Nov-10 04:54N 01°17' E 103°58'0 0.1
2017-Nov-10 04:21N 01°17' E 103°58'0 1.4
2017-Nov-10 04:00N 01°17' E 103°58'2 4.4
2017-Nov-10 03:30N 01°15' E 103°57'3 6.3
2017-Nov-10 03:00N 01°13' E 103°54'3 6.7
2017-Nov-10 02:30N 01°11' E 103°51'3 6.0
2017-Nov-10 02:00N 01°10' E 103°48'3 5.4
2017-Nov-10 01:30N 01°08' E 103°46'3 5.4
2017-Nov-10 01:00N 01°06' E 103°44'3 5.9
2017-Nov-10 00:30N 01°04' E 103°42'3 5.5
2017-Nov-09 23:59N 01°03' E 103°40'2 5.1
2017-Nov-09 23:30N 01°03' E 103°37'5 9.5
2017-Nov-09 23:00N 01°06' E 103°33'611.5
2017-Nov-09 22:30N 01°09' E 103°28'611.6
2017-Nov-09 21:59N 01°12' E 103°23'  

Dump ship's entire track history